Portada
METAR-TAF:

METAR-TAF

Aeroports :

Ostrava, República Txeca

latitud: 49-41N, longitud: 018-07E, altitud: 256 m

Observació

L'informe es va fer fa 34 minuts, a les 19:00 UTC
Vent 4 kt del Nord-Est
Temperatura 21°C
Humitat 56%
Pressió 1016 hPa
Visibilitat 10 km o més
sense núvols per sota de 1500 mi sense presència de cumulonimbus.

METAR: LKMT 231900Z 05004KT CAVOK 21/12 Q1016 NOSIG

Hora: 21:34 (19:34 UTC)

Pronòstic

L'informe es va fer fa 2 hores i 34 minuts, a les 17:00 UTC
Pronòstic vàlid del 23 a les 18 UTC al 25 a les 00 UTC
Vent 2 kt amb direcció variable
Visibilitat 10 km o més
sense núvols per sota de 1500 mi sense presència de cumulonimbus.

TAF: LKMT 231700Z 2318/2500 VRB02KT CAVOK

Observacions i pronòstics meteorològics de més de 4000 aeroports (METAR i TAF).

Les estacions disponibles són els punts grocs i vermells al mapa.

Posi el ratolí al punt desitjat per veure el nom de l'estació.

Feu clic per veure les observacions i els pronòstics meteorològics.

Per canviar el mapa: feu clic els botons verds amb una creu de color negre per apropar; al botó verd amb un guió per allunyar la imatge; o en les fletxes verdes per a mapes adjacents.


METAR-TAF: